Time;durP1;ratioP1;P1;durP2;ratioP2;P2;SDS_P1;SDS_P2;PMS_P1;PMS_P2;Temp;Humidity;BMP_temperature;BMP_pressure;BME280_temperature;BME280_humidity;BME280_pressure;Samples;Min_cycle;Max_cycle;Signal;HPM_P1;HPM_P2
2022/10/20 00:00:49;;;;;;;;;;;;;;;16.64;64.41;95786.69;5133071;27;20098;-74
2022/10/20 00:03:15;;;;;;;;;;;;;;;16.78;64.20;95786.47;5132451;27;20009;-73
2022/10/20 00:05:40;;;;;;;;;;;;;;;16.96;63.74;95784.44;5131399;27;20107;-71
2022/10/20 00:08:05;;;;;;;;;;;;;;;16.89;63.82;95786.88;5132680;27;20042;-73
2022/10/20 00:10:30;;;;;;;;;;;;;;;16.82;63.92;95778.53;5132905;27;20748;-73
2022/10/20 00:12:56;;;;;;;;;;;;;;;16.93;63.70;95779.72;5130441;27;20680;-73
2022/10/20 00:15:21;;;;;;;;;;;;;;;16.98;63.77;95782.19;5130650;27;20064;-73
2022/10/20 00:17:46;;;;;;;;;;;;;;;16.84;63.51;95785.19;5131752;27;20020;-73
2022/10/20 00:20:11;;;;;;;;;;;;;;;16.96;63.61;95779.06;5132591;27;20016;-73
2022/10/20 00:22:37;;;;;;;;;;;;;;;16.96;63.71;95787.13;5133356;27;20111;-73
2022/10/20 00:25:02;;;;;;;;;;;;;;;16.80;63.87;95788.84;5130941;27;20020;-73
2022/10/20 00:27:27;;;;;;;;;;;;;;;17.04;64.07;95786.25;5131590;27;20113;-73
2022/10/20 00:29:52;;;;;;;;;;;;;;;17.19;63.66;95782.19;5131373;27;20098;-72
2022/10/20 00:32:17;;;;;;;;;;;;;;;17.25;63.21;95780.06;5131602;27;20105;-73
2022/10/20 00:34:43;;;;;;;;;;;;;;;17.17;63.35;95784.41;5131092;27;20383;-73
2022/10/20 00:37:08;;;;;;;;;;;;;;;17.10;63.63;95779.59;5130485;27;20467;-73
2022/10/20 00:39:33;;;;;;;;;;;;;;;17.04;63.98;95772.81;5130828;27;20015;-73
2022/10/20 00:42:01;;;;;;;;;;;;;;;17.05;63.83;95768.25;5131719;27;20019;-73
2022/10/20 00:44:44;;;;;;;;;;;;;;;17.07;64.01;95760.63;5131174;27;20023;-73
2022/10/20 00:47:12;;;;;;;;;;;;;;;16.70;65.01;95759.66;5131035;27;20061;-73
2022/10/20 00:49:37;;;;;;;;;;;;;;;16.85;65.11;95751.03;5130281;27;20024;-72
2022/10/20 00:52:03;;;;;;;;;;;;;;;17.05;64.73;95758.28;5133047;27;20030;-72
2022/10/20 00:54:29;;;;;;;;;;;;;;;16.69;65.50;95747.34;5131801;27;20387;-73
2022/10/20 00:56:55;;;;;;;;;;;;;;;16.80;65.50;95740.47;5129108;27;20030;-73
2022/10/20 00:59:22;;;;;;;;;;;;;;;16.55;66.29;95736.84;5128707;27;20352;-73
2022/10/20 01:01:47;;;;;;;;;;;;;;;16.89;65.59;95731.22;5130498;27;20441;-73
2022/10/20 01:04:13;;;;;;;;;;;;;;;16.78;65.81;95740.78;5130586;27;20041;-72
2022/10/20 01:06:39;;;;;;;;;;;;;;;16.99;65.30;95739.97;5131391;27;20076;-72
2022/10/20 01:09:04;;;;;;;;;;;;;;;16.84;65.52;95736.81;5131120;27;20020;-73
2022/10/20 01:11:29;;;;;;;;;;;;;;;16.77;65.72;95730.38;5132511;27;20012;-73
2022/10/20 01:13:58;;;;;;;;;;;;;;;16.84;65.71;95733.34;5131467;27;20011;-72
2022/10/20 01:16:45;;;;;;;;;;;;;;;16.48;66.32;95734.69;5129942;27;20452;-73
2022/10/20 01:19:26;;;;;;;;;;;;;;;16.78;65.70;95727.34;5115286;27;20020;-72
2022/10/20 01:21:54;;;;;;;;;;;;;;;16.66;66.00;95721.13;5131041;27;20019;-72
2022/10/20 01:24:19;;;;;;;;;;;;;;;16.98;65.21;95723.06;5130445;27;20544;-72
2022/10/20 01:26:50;;;;;;;;;;;;;;;16.42;66.34;95725.22;5129981;27;20012;-73
2022/10/20 01:29:25;;;;;;;;;;;;;;;16.67;65.92;95730.75;5131017;27;20118;-72
2022/10/20 01:32:01;;;;;;;;;;;;;;;16.79;65.54;95736.22;5131551;27;20016;-72
2022/10/20 01:34:32;;;;;;;;;;;;;;;16.80;65.75;95721.69;5131062;27;20064;-73
2022/10/20 01:36:59;;;;;;;;;;;;;;;16.95;65.23;95722.97;5130679;27;20016;-72
2022/10/20 01:39:33;;;;;;;;;;;;;;;16.79;65.05;95714.72;5129969;27;20061;-73
2022/10/20 01:42:01;;;;;;;;;;;;;;;16.72;65.22;95720.63;5131048;27;20012;-72
2022/10/20 01:44:27;;;;;;;;;;;;;;;16.80;65.44;95721.69;5131239;27;20012;-73
2022/10/20 01:46:54;;;;;;;;;;;;;;;16.72;65.59;95707.19;5129248;27;20039;-73
2022/10/20 01:49:19;;;;;;;;;;;;;;;16.78;65.51;95705.88;5131223;27;20040;-72
2022/10/20 01:51:44;;;;;;;;;;;;;;;16.74;65.38;95709.56;5131013;27;20467;-73
2022/10/20 01:54:23;;;;;;;;;;;;;;;16.58;65.92;95710.13;5130731;27;20012;-72
2022/10/20 01:57:08;;;;;;;;;;;;;;;16.35;66.69;95711.53;5127006;27;20450;-72
2022/10/20 01:59:52;;;;;;;;;;;;;;;16.36;66.94;95715.81;5098945;27;20073;-72
2022/10/20 02:02:40;;;;;;;;;;;;;;;16.36;66.50;95721.16;5130346;27;20027;-73
2022/10/20 02:05:14;;;;;;;;;;;;;;;16.42;66.57;95717.16;5099172;27;20021;-71
2022/10/20 02:07:40;;;;;;;;;;;;;;;16.50;66.31;95710.97;5109496;28;20152;-72
2022/10/20 02:10:32;;;;;;;;;;;;;;;16.59;66.16;95709.00;5109522;28;20103;-72
2022/10/20 02:12:59;;;;;;;;;;;;;;;16.72;65.98;95696.44;5114783;27;20364;-73
2022/10/20 02:15:26;;;;;;;;;;;;;;;16.72;65.86;95698.34;5128163;27;20069;-72
2022/10/20 02:17:53;;;;;;;;;;;;;;;16.64;65.59;95694.59;5129280;27;20019;-72
2022/10/20 02:20:18;;;;;;;;;;;;;;;16.28;66.29;95697.88;5130124;27;20466;-73
2022/10/20 02:22:44;;;;;;;;;;;;;;;16.73;65.75;95692.63;5129826;27;20065;-73
2022/10/20 02:25:10;;;;;;;;;;;;;;;16.71;65.65;95691.38;5129274;27;20020;-73
2022/10/20 02:27:38;;;;;;;;;;;;;;;16.74;65.53;95691.53;5129734;27;20016;-73
2022/10/20 02:30:07;;;;;;;;;;;;;;;16.66;65.64;95681.63;5129372;27;20035;-73
2022/10/20 02:32:34;;;;;;;;;;;;;;;16.61;65.50;95679.91;5128727;27;20016;-72
2022/10/20 02:34:59;;;;;;;;;;;;;;;16.47;65.94;95682.06;5128807;27;20439;-72
2022/10/20 02:37:24;;;;;;;;;;;;;;;16.79;65.49;95671.75;5130668;27;20055;-72
2022/10/20 02:39:49;;;;;;;;;;;;;;;16.87;65.00;95665.50;5130463;27;20012;-73
2022/10/20 02:42:16;;;;;;;;;;;;;;;16.79;64.71;95671.75;5131179;27;20068;-73
2022/10/20 02:44:41;;;;;;;;;;;;;;;16.75;64.82;95668.16;5128199;27;20017;-75
2022/10/20 02:47:06;;;;;;;;;;;;;;;16.73;64.73;95664.97;5129049;28;20019;-72
2022/10/20 02:49:31;;;;;;;;;;;;;;;16.85;64.52;95663.16;5130629;27;20020;-73
2022/10/20 02:51:57;;;;;;;;;;;;;;;16.84;64.39;95658.13;5128955;28;20020;-72
2022/10/20 02:54:22;;;;;;;;;;;;;;;16.56;65.15;95669.38;5128758;27;20016;-71
2022/10/20 02:56:47;;;;;;;;;;;;;;;16.63;64.98;95664.28;5129046;28;20027;-72
2022/10/20 02:59:13;;;;;;;;;;;;;;;16.59;64.85;95660.66;5129684;27;20016;-71
2022/10/20 03:01:39;;;;;;;;;;;;;;;16.61;64.96;95658.44;5133006;27;20364;-72
2022/10/20 03:04:04;;;;;;;;;;;;;;;16.62;64.93;95660.00;5133276;27;20012;-72
2022/10/20 03:06:29;;;;;;;;;;;;;;;16.67;64.97;95660.91;5150682;27;20486;-73
2022/10/20 03:08:54;;;;;;;;;;;;;;;16.55;65.08;95659.75;5133620;27;20016;-73
2022/10/20 03:11:19;;;;;;;;;;;;;;;16.74;65.02;95656.63;5135124;27;20008;-73
2022/10/20 03:13:45;;;;;;;;;;;;;;;16.66;63.73;95656.66;5132453;27;20020;-73
2022/10/20 03:16:10;;;;;;;;;;;;;;;16.71;64.47;95659.94;5133882;27;20012;-73
2022/10/20 03:18:35;;;;;;;;;;;;;;;16.69;64.51;95666.75;5132747;27;20015;-73
2022/10/20 03:21:00;;;;;;;;;;;;;;;16.53;65.10;95667.34;5134478;27;20572;-73
2022/10/20 03:23:25;;;;;;;;;;;;;;;16.59;64.77;95662.56;5131649;27;20110;-74
2022/10/20 03:25:51;;;;;;;;;;;;;;;16.75;64.66;95657.41;5134398;27;20008;-73
2022/10/20 03:28:16;;;;;;;;;;;;;;;16.70;64.29;95663.72;5133790;27;20020;-72
2022/10/20 03:30:41;;;;;;;;;;;;;;;16.83;64.23;95659.97;5132557;27;20012;-72
2022/10/20 03:33:06;;;;;;;;;;;;;;;16.67;63.90;95661.69;5125228;22;20111;-69
2022/10/20 03:35:32;;;;;;;;;;;;;;;16.51;64.42;95666.88;5034344;28;20024;-69
2022/10/20 03:37:57;;;;;;;;;;;;;;;16.53;64.31;95661.19;5053149;28;20461;-69
2022/10/20 03:40:22;;;;;;;;;;;;;;;16.44;64.51;95661.25;5052164;28;20123;-69
2022/10/20 03:42:48;;;;;;;;;;;;;;;16.61;64.71;95654.94;5065631;28;20380;-69
2022/10/20 03:45:13;;;;;;;;;;;;;;;16.62;64.35;95651.94;5070098;28;20024;-69
2022/10/20 03:47:38;;;;;;;;;;;;;;;16.38;65.13;95662.59;5071355;28;20017;-70
2022/10/20 03:50:03;;;;;;;;;;;;;;;16.36;65.06;95652.16;5054735;28;20074;-70
2022/10/20 03:52:28;;;;;;;;;;;;;;;16.18;66.04;95663.34;5052382;28;20108;-70
2022/10/20 03:54:54;;;;;;;;;;;;;;;16.17;65.96;95661.75;5054081;28;20070;-70
2022/10/20 03:57:19;;;;;;;;;;;;;;;15.76;67.24;95660.59;5071564;28;20016;-69
2022/10/20 03:59:45;;;;;;;;;;;;;;;16.16;66.38;95657.50;5069310;28;20142;-70
2022/10/20 04:02:31;;;;;;;;;;;;;;;16.32;66.09;95658.50;5070648;28;20023;-69
2022/10/20 04:04:56;;;;;;;;;;;;;;;16.51;65.49;95656.13;5049210;28;20060;-70
2022/10/20 04:07:22;;;;;;;;;;;;;;;16.64;64.96;95651.63;5053287;28;20014;-69
2022/10/20 04:09:47;;;;;;;;;;;;;;;16.71;64.34;95649.22;5072301;28;20084;-69
2022/10/20 04:12:12;;;;;;;;;;;;;;;16.81;64.23;95651.47;5070148;28;20013;-71
2022/10/20 04:14:38;;;;;;;;;;;;;;;16.85;64.21;95657.00;5072007;28;20104;-69
2022/10/20 04:17:03;;;;;;;;;;;;;;;16.91;63.69;95652.97;5070877;28;20020;-69
2022/10/20 04:19:28;;;;;;;;;;;;;;;16.91;63.41;95654.88;5054224;28;20018;-70
2022/10/20 04:21:53;;;;;;;;;;;;;;;16.84;63.45;95656.22;5070445;28;20104;-69
2022/10/20 04:24:18;;;;;;;;;;;;;;;16.89;63.46;95653.31;5054374;28;20525;-70
2022/10/20 04:26:43;;;;;;;;;;;;;;;16.91;63.11;95652.97;5071050;28;20021;-70
2022/10/20 04:29:09;;;;;;;;;;;;;;;16.84;63.13;95648.16;5053218;28;20021;-70
2022/10/20 04:31:34;;;;;;;;;;;;;;;16.87;63.20;95646.69;5050530;28;20024;-69
2022/10/20 04:33:59;;;;;;;;;;;;;;;16.88;63.22;95643.66;5054193;28;20464;-69
2022/10/20 04:36:24;;;;;;;;;;;;;;;16.79;63.09;95639.50;5070518;28;20017;-69
2022/10/20 04:38:49;;;;;;;;;;;;;;;16.81;63.34;95640.72;5068737;28;20045;-71
2022/10/20 04:41:15;;;;;;;;;;;;;;;16.89;63.38;95634.50;5069234;28;20017;-71
2022/10/20 04:43:40;;;;;;;;;;;;;;;16.91;63.10;95626.09;5072004;28;20498;-71
2022/10/20 04:46:05;;;;;;;;;;;;;;;16.97;63.05;95624.75;5053344;28;20013;-71
2022/10/20 04:48:31;;;;;;;;;;;;;;;16.75;63.22;95627.84;5069854;28;20479;-75
2022/10/20 04:51:02;;;;;;;;;;;;;;;16.85;63.29;95624.75;5053494;28;20071;-73
2022/10/20 04:53:28;;;;;;;;;;;;;;;16.88;63.14;95632.91;5071745;28;20016;-67
2022/10/20 04:55:53;;;;;;;;;;;;;;;16.92;63.07;95622.28;5070170;28;20009;-70
2022/10/20 04:58:19;;;;;;;;;;;;;;;16.74;62.95;95629.75;5068321;28;20024;-69
2022/10/20 05:00:44;;;;;;;;;;;;;;;16.71;62.75;95626.91;5064026;28;20013;-73
2022/10/20 05:03:09;;;;;;;;;;;;;;;16.83;62.88;95635.03;5067925;28;20424;-71
2022/10/20 05:05:34;;;;;;;;;;;;;;;16.82;62.95;95628.88;5068207;28;20017;-71
2022/10/20 05:07:59;;;;;;;;;;;;;;;16.72;62.80;95623.13;5049837;28;20027;-71
2022/10/20 05:10:25;;;;;;;;;;;;;;;16.81;62.89;95615.78;5070179;28;20063;-70
2022/10/20 05:12:50;;;;;;;;;;;;;;;16.86;62.68;95610.97;5069160;28;20020;-70
2022/10/20 05:15:15;;;;;;;;;;;;;;;16.92;62.56;95611.53;5068343;28;20017;-70
2022/10/20 05:17:40;;;;;;;;;;;;;;;16.98;62.39;95610.22;5064153;28;20013;-71
2022/10/20 05:20:06;;;;;;;;;;;;;;;17.02;62.18;95607.66;5053195;28;20014;-71
2022/10/20 05:22:31;;;;;;;;;;;;;;;17.00;61.93;95605.31;5049882;28;20041;-72
2022/10/20 05:24:56;;;;;;;;;;;;;;;16.92;62.10;95613.44;5070271;28;20017;-74
2022/10/20 05:27:21;;;;;;;;;;;;;;;16.97;62.05;95619.38;5067662;28;20455;-76
2022/10/20 05:29:46;;;;;;;;;;;;;;;16.96;61.95;95607.06;5070129;28;20028;-70
2022/10/20 05:32:12;;;;;;;;;;;;;;;17.02;62.01;95613.03;5068899;28;20020;-68
2022/10/20 05:34:37;;;;;;;;;;;;;;;16.96;61.92;95611.66;5050884;28;20524;-67
2022/10/20 05:37:03;;;;;;;;;;;;;;;17.02;61.81;95605.75;5068799;28;20489;-67
2022/10/20 05:39:28;;;;;;;;;;;;;;;17.00;62.50;95608.00;5071138;28;20016;-74
2022/10/20 05:41:53;;;;;;;;;;;;;;;16.84;63.67;95615.13;5052888;28;20017;-72
2022/10/20 05:44:18;;;;;;;;;;;;;;;16.93;62.59;95606.94;5069111;28;20124;-73
2022/10/20 05:46:43;;;;;;;;;;;;;;;16.93;63.00;95607.72;5069113;28;20116;-73
2022/10/20 05:49:14;;;;;;;;;;;;;;;17.04;62.35;95610.78;5069155;28;20025;-73
2022/10/20 05:51:39;;;;;;;;;;;;;;;17.05;61.27;95609.69;5052864;28;20018;-67
2022/10/20 05:54:04;;;;;;;;;;;;;;;17.12;61.03;95607.22;5069951;28;20116;-68
2022/10/20 05:56:30;;;;;;;;;;;;;;;17.12;60.88;95608.00;5050846;28;20472;-71
2022/10/20 05:58:56;;;;;;;;;;;;;;;17.15;60.99;95606.56;5069024;28;20016;-68
2022/10/20 06:01:23;;;;;;;;;;;;;;;17.23;60.79;95600.28;5070934;28;20089;-68
2022/10/20 06:03:55;;;;;;;;;;;;;;;17.25;60.82;95603.44;5053287;28;20092;-69
2022/10/20 06:06:21;;;;;;;;;;;;;;;17.00;60.45;95605.31;5069119;28;20361;-68
2022/10/20 06:08:47;;;;;;;;;;;;;;;16.31;62.60;95611.28;5084378;28;21407;-69
2022/10/20 06:11:14;;;;;;;;;;;;;;;16.45;62.18;95608.34;5052224;28;20017;-68
2022/10/20 06:13:39;;;;;;;;;;;;;;;16.71;62.20;95608.91;5051385;28;20098;-69
2022/10/20 06:16:06;;;;;;;;;;;;;;;16.88;61.77;95606.03;5068228;28;20013;-68
2022/10/20 06:18:31;;;;;;;;;;;;;;;16.93;61.24;95601.56;5080202;28;20056;-68
2022/10/20 06:21:01;;;;;;;;;;;;;;;16.99;61.09;95601.03;5053371;28;20075;-69
2022/10/20 06:23:26;;;;;;;;;;;;;;;17.07;60.75;95602.06;5051756;28;20013;-68
2022/10/20 06:25:51;;;;;;;;;;;;;;;17.11;60.74;95609.13;5069714;28;20016;-69
2022/10/20 06:28:17;;;;;;;;;;;;;;;17.12;60.31;95612.59;5070112;28;20013;-68
2022/10/20 06:30:42;;;;;;;;;;;;;;;17.17;60.25;95617.75;5066243;28;20013;-69
2022/10/20 06:33:11;;;;;;;;;;;;;;;17.21;59.86;95625.94;5086113;28;20024;-68
2022/10/20 06:35:36;;;;;;;;;;;;;;;17.10;59.91;95623.69;5073066;28;20024;-69
2022/10/20 06:38:01;;;;;;;;;;;;;;;17.02;60.20;95616.50;5090383;28;20009;-69
2022/10/20 06:40:26;;;;;;;;;;;;;;;17.14;60.09;95619.19;5090326;28;20052;-68
2022/10/20 06:42:52;;;;;;;;;;;;;;;17.23;59.92;95621.00;5089829;28;20047;-68
2022/10/20 06:45:17;;;;;;;;;;;;;;;17.33;59.66;95615.97;5051028;28;20067;-68
2022/10/20 06:47:42;;;;;;;;;;;;;;;17.42;59.25;95610.50;5068961;28;20063;-69
2022/10/20 06:50:07;;;;;;;;;;;;;;;17.37;59.01;95614.19;5069761;28;20053;-69
2022/10/20 06:52:33;;;;;;;;;;;;;;;17.40;59.44;95607.34;5068359;28;20404;-69
2022/10/20 06:54:58;;;;;;;;;;;;;;;17.47;59.07;95604.13;5067418;28;20017;-69
2022/10/20 06:57:23;;;;;;;;;;;;;;;17.47;58.97;95604.91;5067892;28;20015;-69
2022/10/20 06:59:48;;;;;;;;;;;;;;;17.44;58.97;95600.19;5051781;28;20480;-69
2022/10/20 07:02:14;;;;;;;;;;;;;;;17.38;58.82;95605.00;5069447;28;20009;-68
2022/10/20 07:04:39;;;;;;;;;;;;;;;17.57;58.60;95598.28;5067344;28;20013;-69
2022/10/20 07:07:04;;;;;;;;;;;;;;;17.57;58.46;95592.91;5069046;28;20493;-68
2022/10/20 07:09:29;;;;;;;;;;;;;;;17.59;58.29;95599.50;5069623;28;20021;-68
2022/10/20 07:11:55;;;;;;;;;;;;;;;17.58;58.30;95602.53;5069773;28;20009;-68
2022/10/20 07:14:20;;;;;;;;;;;;;;;17.60;58.21;95602.97;5069288;28;20018;-69
2022/10/20 07:16:45;;;;;;;;;;;;;;;17.56;58.31;95597.50;5051164;28;20354;-69
2022/10/20 07:19:10;;;;;;;;;;;;;;;17.57;58.05;95601.75;5069669;28;20021;-68
2022/10/20 07:21:36;;;;;;;;;;;;;;;17.47;58.15;95606.81;5068578;28;20070;-69
2022/10/20 07:24:02;;;;;;;;;;;;;;;17.50;58.22;95598.81;5051698;28;20024;-69
2022/10/20 07:26:29;;;;;;;;;;;;;;;17.32;58.63;95603.66;5069194;28;20075;-68
2022/10/20 07:28:55;;;;;;;;;;;;;;;17.56;58.47;95607.47;5067656;28;20054;-69
2022/10/20 07:31:22;;;;;;;;;;;;;;;17.83;57.94;95595.25;5069211;28;20020;-69
2022/10/20 07:33:48;;;;;;;;;;;;;;;18.00;57.37;95589.63;5067149;28;20540;-68
2022/10/20 07:36:15;;;;;;;;;;;;;;;18.17;57.11;95594.75;5051100;28;20109;-69
2022/10/20 07:38:40;;;;;;;;;;;;;;;18.43;56.44;95598.94;5069017;28;20017;-70
2022/10/20 07:41:05;;;;;;;;;;;;;;;18.60;55.94;95595.94;5051133;28;20368;-69
2022/10/20 07:43:30;;;;;;;;;;;;;;;18.91;54.59;95594.47;5068250;28;20070;-69
2022/10/20 07:45:56;;;;;;;;;;;;;;;19.16;54.52;95595.09;5068851;28;20009;-71
2022/10/20 07:48:21;;;;;;;;;;;;;;;19.35;53.51;95591.72;5070147;28;20017;-69
2022/10/20 07:50:46;;;;;;;;;;;;;;;19.53;53.12;95592.91;5054718;28;20023;-69
2022/10/20 07:53:11;;;;;;;;;;;;;;;19.63;52.39;95591.63;5071749;28;20021;-68
2022/10/20 07:55:36;;;;;;;;;;;;;;;19.52;51.86;95590.56;5072015;28;20078;-68
2022/10/20 07:58:01;;;;;;;;;;;;;;;19.53;51.63;95582.09;5073324;28;20055;-71
2022/10/20 08:00:27;;;;;;;;;;;;;;;19.51;51.37;95581.69;5055429;28;20064;-71
2022/10/20 08:02:52;;;;;;;;;;;;;;;19.52;51.34;95580.53;5054276;28;20056;-72
2022/10/20 08:05:17;;;;;;;;;;;;;;;19.45;51.21;95577.69;5070834;28;20059;-71
2022/10/20 08:07:42;;;;;;;;;;;;;;;19.27;51.76;95581.88;5054645;28;20021;-71
2022/10/20 08:10:08;;;;;;;;;;;;;;;19.27;51.65;95582.66;5054575;28;20441;-71
2022/10/20 08:12:33;;;;;;;;;;;;;;;19.37;51.28;95576.72;5071727;28;20544;-71
2022/10/20 08:14:58;;;;;;;;;;;;;;;19.44;51.58;95581.50;5053915;28;20017;-71
2022/10/20 08:17:25;;;;;;;;;;;;;;;19.63;51.42;95583.50;5072264;28;20123;-71
2022/10/20 08:19:50;;;;;;;;;;;;;;;19.75;51.00;95583.41;5072384;28;20051;-71
2022/10/20 08:22:17;;;;;;;;;;;;;;;19.67;50.41;95577.06;5069707;28;20056;-71
2022/10/20 08:24:43;;;;;;;;;;;;;;;19.33;51.03;95573.16;5071176;28;20017;-71
2022/10/20 08:27:08;;;;;;;;;;;;;;;19.15;51.64;95570.03;5070990;28;20385;-71
2022/10/20 08:29:33;;;;;;;;;;;;;;;19.14;51.77;95581.97;5070451;28;20044;-71
2022/10/20 08:31:58;;;;;;;;;;;;;;;19.21;51.73;95579.44;5070510;28;20020;-72
2022/10/20 08:34:24;;;;;;;;;;;;;;;19.25;51.52;95573.34;5071182;28;20017;-72
2022/10/20 08:36:49;;;;;;;;;;;;;;;19.43;51.11;95571.84;5071036;28;20022;-72
2022/10/20 08:39:14;;;;;;;;;;;;;;;19.33;50.53;95572.38;5071949;28;20171;-71
2022/10/20 08:41:43;;;;;;;;;;;;;;;19.83;50.84;95568.16;5071904;28;20020;-71
2022/10/20 08:44:15;;;;;;;;;;;;;;;20.11;50.22;95560.66;5053311;28;20071;-72
2022/10/20 08:46:41;;;;;;;;;;;;;;;20.50;48.98;95549.88;5071345;28;20099;-70
2022/10/20 08:49:13;;;;;;;;;;;;;;;20.65;48.63;95557.09;5071540;28;20116;-71
2022/10/20 08:51:38;;;;;;;;;;;;;;;19.76;49.17;95562.59;5071667;28;20013;-71
2022/10/20 08:54:04;;;;;;;;;;;;;;;18.78;51.52;95558.69;5053026;28;20112;-71
2022/10/20 08:56:32;;;;;;;;;;;;;;;18.83;51.67;95560.34;5071132;28;20669;-71
2022/10/20 08:58:57;;;;;;;;;;;;;;;18.77;52.07;95556.34;5071143;28;20079;-71
2022/10/20 09:01:26;;;;;;;;;;;;;;;18.60;52.74;95562.81;5071485;28;20473;-71
2022/10/20 09:03:54;;;;;;;;;;;;;;;18.48;52.81;95560.97;5069350;28;20023;-71
2022/10/20 09:06:19;;;;;;;;;;;;;;;18.34;52.95;95553.28;5072422;28;20017;-72
2022/10/20 09:08:45;;;;;;;;;;;;;;;18.87;51.93;95555.84;5077026;28;20062;-72
2022/10/20 09:11:22;;;;;;;;;;;;;;;19.40;51.66;95559.84;5091053;28;20013;-72
2022/10/20 09:13:47;;;;;;;;;;;;;;;19.90;49.97;95562.91;5059235;28;20499;-71
2022/10/20 09:16:24;;;;;;;;;;;;;;;19.82;49.37;95561.19;5078941;28;20020;-71
2022/10/20 09:18:54;;;;;;;;;;;;;;;19.83;49.73;95554.66;5071251;28;20013;-69
2022/10/20 09:21:20;;;;;;;;;;;;;;;19.09;50.75;95554.44;5074914;28;20016;-70
2022/10/20 09:23:49;;;;;;;;;;;;;;;19.50;50.35;95555.84;5069451;28;20112;-70
2022/10/20 09:26:19;;;;;;;;;;;;;;;19.81;49.95;95559.59;5068278;28;20070;-70
2022/10/20 09:28:49;;;;;;;;;;;;;;;19.97;49.53;95561.16;5057598;28;20009;-69
2022/10/20 09:31:31;;;;;;;;;;;;;;;20.29;49.05;95560.25;5074353;28;20021;-71
2022/10/20 09:33:56;;;;;;;;;;;;;;;20.09;48.88;95557.53;5049818;28;20376;-69
2022/10/20 09:36:24;;;;;;;;;;;;;;;19.48;49.53;95552.69;5053487;28;20017;-70
2022/10/20 09:38:50;;;;;;;;;;;;;;;19.78;49.82;95555.72;5056929;28;20048;-72
2022/10/20 09:41:17;;;;;;;;;;;;;;;19.77;49.41;95561.47;5088498;22;20112;-70
2022/10/20 09:43:52;;;;;;;;;;;;;;;20.09;49.00;95565.63;5071973;28;20017;-70
2022/10/20 09:46:19;;;;;;;;;;;;;;;19.93;48.93;95559.50;5068992;28;20012;-70
2022/10/20 09:48:47;;;;;;;;;;;;;;;19.68;49.43;95556.25;5076286;28;20021;-70
2022/10/20 09:51:17;;;;;;;;;;;;;;;18.94;50.75;95559.50;5069327;28;20021;-71
2022/10/20 09:53:51;;;;;;;;;;;;;;;18.52;52.16;95555.66;5076712;28;20013;-70
2022/10/20 09:56:31;;;;;;;;;;;;;;;17.63;54.71;95545.81;5070620;28;20009;-70
2022/10/20 09:58:57;;;;;;;;;;;;;;;18.57;52.97;95550.03;5069554;28;20009;-69
2022/10/20 10:01:23;;;;;;;;;;;;;;;18.76;52.34;95552.09;5069675;28;20079;-69
2022/10/20 10:03:54;;;;;;;;;;;;;;;18.68;51.80;95548.41;5069517;28;20492;-71
2022/10/20 10:06:28;;;;;;;;;;;;;;;18.46;52.63;95536.28;5068951;28;20039;-71
2022/10/20 10:08:54;;;;;;;;;;;;;;;18.65;52.35;95535.63;5070651;28;20044;-71
2022/10/20 10:11:22;;;;;;;;;;;;;;;19.00;52.03;95538.47;5069209;28;20092;-70
2022/10/20 10:13:49;;;;;;;;;;;;;;;19.07;51.34;95543.25;5072014;28;20104;-70
2022/10/20 10:16:19;;;;;;;;;;;;;;;19.24;50.84;95534.78;5071491;28;20014;-73
2022/10/20 10:18:54;;;;;;;;;;;;;;;19.23;50.50;95534.00;5079290;28;20035;-71
2022/10/20 10:21:20;;;;;;;;;;;;;;;19.30;50.91;95540.72;5069932;28;20017;-71
2022/10/20 10:23:50;;;;;;;;;;;;;;;19.30;50.49;95548.81;5084394;28;20524;-72
2022/10/20 10:26:34;;;;;;;;;;;;;;;19.24;50.75;95550.97;5069977;28;20123;-71
2022/10/20 10:28:59;;;;;;;;;;;;;;;19.33;50.41;95548.09;5068694;28;20021;-74
2022/10/20 10:31:25;;;;;;;;;;;;;;;19.58;49.36;95541.38;5066071;28;21900;-72
2022/10/20 10:34:09;;;;;;;;;;;;;;;19.76;49.42;95535.59;5070127;28;20020;-70
2022/10/20 10:36:35;;;;;;;;;;;;;;;20.14;48.97;95532.16;5068499;28;20162;-72
2022/10/20 10:39:01;;;;;;;;;;;;;;;20.52;48.42;95531.38;5067560;28;20103;-72
2022/10/20 10:41:35;;;;;;;;;;;;;;;20.75;47.93;95521.38;5067964;28;20021;-73
2022/10/20 10:44:14;;;;;;;;;;;;;;;20.66;47.02;95518.13;5070163;28;20598;-73
2022/10/20 10:46:41;;;;;;;;;;;;;;;20.49;47.21;95513.19;5057995;28;20018;-71
2022/10/20 10:49:19;;;;;;;;;;;;;;;20.45;47.51;95506.91;5067382;28;20017;-71
2022/10/20 10:51:54;;;;;;;;;;;;;;;20.42;47.98;95502.19;5068608;28;20013;-73
2022/10/20 10:54:35;;;;;;;;;;;;;;;20.42;47.77;95513.00;5069076;28;20016;-71
2022/10/20 10:57:30;;;;;;;;;;;;;;;20.52;47.46;95517.84;5069634;28;20025;-71
2022/10/20 10:59:57;;;;;;;;;;;;;;;20.17;47.88;95510.63;5060779;28;20021;-71
2022/10/20 11:02:37;;;;;;;;;;;;;;;19.77;48.78;95504.78;5070561;28;20009;-70
2022/10/20 11:05:19;;;;;;;;;;;;;;;19.91;48.83;95496.97;5068354;28;20111;-72
2022/10/20 11:07:50;;;;;;;;;;;;;;;20.35;48.31;95488.56;5069936;28;20017;-72
2022/10/20 11:10:27;;;;;;;;;;;;;;;20.29;48.01;95484.59;5067642;28;20021;-71
2022/10/20 11:12:55;;;;;;;;;;;;;;;19.45;48.92;95483.28;5068996;28;20457;-71
2022/10/20 11:15:39;;;;;;;;;;;;;;;19.93;48.59;95486.59;5068707;28;20017;-71
2022/10/20 11:18:12;;;;;;;;;;;;;;;20.14;48.12;95491.66;5068497;28;20014;-72
2022/10/20 11:20:51;;;;;;;;;;;;;;;20.52;47.60;95482.72;5065564;28;20017;-71
2022/10/20 11:23:27;;;;;;;;;;;;;;;20.86;46.87;95480.22;5067172;28;20017;-72
2022/10/20 11:25:52;;;;;;;;;;;;;;;21.22;46.58;95476.16;5071982;28;20139;-70
2022/10/20 11:28:27;;;;;;;;;;;;;;;20.79;45.97;95488.22;5071925;28;20140;-71
2022/10/20 11:30:52;;;;;;;;;;;;;;;21.04;45.91;95475.91;5072722;28;20017;-71
2022/10/20 11:33:22;;;;;;;;;;;;;;;21.11;45.56;95484.13;5072831;28;20017;-72
2022/10/20 11:35:47;;;;;;;;;;;;;;;21.54;45.50;95477.41;5073618;28;20018;-71
2022/10/20 11:38:15;;;;;;;;;;;;;;;21.75;45.15;95476.94;5073425;28;20013;-73
2022/10/20 11:40:48;;;;;;;;;;;;;;;21.98;44.98;95473.34;5071919;28;20590;-73
2022/10/20 11:43:13;;;;;;;;;;;;;;;22.06;44.08;95475.00;5072842;28;20109;-71
2022/10/20 11:45:38;;;;;;;;;;;;;;;22.12;44.24;95473.56;5071721;28;20040;-72
2022/10/20 11:48:09;;;;;;;;;;;;;;;22.28;44.13;95476.81;5072376;28;20523;-72
2022/10/20 11:50:35;;;;;;;;;;;;;;;21.85;44.42;95474.72;5073257;28;20486;-71
2022/10/20 11:53:00;;;;;;;;;;;;;;;21.99;43.91;95461.34;5073098;28;20017;-73
2022/10/20 11:55:25;;;;;;;;;;;;;;;22.10;44.18;95451.41;5071222;28;20014;-72
2022/10/20 11:57:59;;;;;;;;;;;;;;;22.38;43.34;95450.22;5072417;28;20117;-74
2022/10/20 12:00:27;;;;;;;;;;;;;;;22.55;42.74;95460.44;5073140;28;20009;-73
2022/10/20 12:03:10;;;;;;;;;;;;;;;22.58;42.94;95457.00;5071960;28;20460;-73
2022/10/20 12:05:39;;;;;;;;;;;;;;;22.77;42.09;95445.91;5070693;28;20006;-71
2022/10/20 12:08:04;;;;;;;;;;;;;;;22.90;42.32;95445.66;5072885;28;20037;-72
2022/10/20 12:10:35;;;;;;;;;;;;;;;23.13;42.14;95448.16;5070348;28;20014;-72
2022/10/20 12:13:00;;;;;;;;;;;;;;;23.26;41.41;95435.84;5071620;28;20103;-72
2022/10/20 12:15:29;;;;;;;;;;;;;;;23.32;41.38;95437.81;5070432;28;20529;-72
2022/10/20 12:18:01;;;;;;;;;;;;;;;23.85;40.72;95439.28;5073103;28;20100;-70
2022/10/20 12:20:26;;;;;;;;;;;;;;;24.03;40.05;95431.22;5070157;28;20059;-71
2022/10/20 12:22:53;;;;;;;;;;;;;;;23.78;39.87;95431.88;5073421;28;20080;-72
2022/10/20 12:25:19;;;;;;;;;;;;;;;23.89;39.92;95431.16;5070052;28;20013;-75
2022/10/20 12:27:44;;;;;;;;;;;;;;;23.86;39.69;95427.28;5071718;28;20043;-73
2022/10/20 12:30:28;;;;;;;;;;;;;;;23.79;40.00;95432.66;5070248;28;20017;-72
2022/10/20 12:33:07;;;;;;;;;;;;;;;23.99;40.55;95430.41;5072654;28;20470;-72
2022/10/20 12:35:53;;;;;;;;;;;;;;;24.13;40.45;95430.47;5072985;28;20070;-72
2022/10/20 12:38:20;;;;;;;;;;;;;;;24.33;39.96;95430.91;5051384;28;20013;-72
2022/10/20 12:40:49;;;;;;;;;;;;;;;24.27;39.96;95425.06;5068035;28;20025;-71
2022/10/20 12:43:25;;;;;;;;;;;;;;;23.91;40.03;95431.56;5071019;28;20111;-72
2022/10/20 12:45:50;;;;;;;;;;;;;;;23.70;40.06;95430.31;5071396;28;20012;-70
2022/10/20 12:48:21;;;;;;;;;;;;;;;23.81;39.88;95425.69;5072766;28;20013;-72
2022/10/20 12:50:49;;;;;;;;;;;;;;;23.88;40.59;95414.06;5064076;28;20014;-75